sensor_id;sensor_type;location;lat;lon;timestamp;pressure;altitude;pressure_sealevel;temperature;humidity
8366;BME280;4220;42.502;24.188;2023-04-25T00:01:38;94523.69;;;12.14;100.00
8366;BME280;4220;42.502;24.188;2023-04-25T00:04:06;94504.56;;;11.95;100.00
8366;BME280;4220;42.502;24.188;2023-04-25T00:06:34;94524.22;;;11.94;100.00
8366;BME280;4220;42.502;24.188;2023-04-25T00:09:01;94520.78;;;11.94;100.00
8366;BME280;4220;42.502;24.188;2023-04-25T00:11:28;94479.31;;;11.76;100.00
8366;BME280;4220;42.502;24.188;2023-04-25T00:13:56;94504.56;;;11.95;100.00
8366;BME280;4220;42.502;24.188;2023-04-25T00:16:25;94508.25;;;11.94;100.00
8366;BME280;4220;42.502;24.188;2023-04-25T00:18:54;94462.16;;;11.67;100.00
8366;BME280;4220;42.502;24.188;2023-04-25T00:21:22;94508.44;;;11.88;100.00
8366;BME280;4220;42.502;24.188;2023-04-25T00:23:49;94513.47;;;11.84;100.00
8366;BME280;4220;42.502;24.188;2023-04-25T00:26:16;94520.53;;;11.78;100.00
8366;BME280;4220;42.502;24.188;2023-04-25T00:28:43;94495.47;;;11.58;100.00
8366;BME280;4220;42.502;24.188;2023-04-25T00:31:10;94520.47;;;11.73;100.00
8366;BME280;4220;42.502;24.188;2023-04-25T00:33:37;94532.25;;;11.66;100.00
8366;BME280;4220;42.502;24.188;2023-04-25T00:36:05;94523.66;;;11.59;100.00
8366;BME280;4220;42.502;24.188;2023-04-25T00:38:33;94531.69;;;11.47;100.00
8366;BME280;4220;42.502;24.188;2023-04-25T00:41:00;94535.63;;;11.45;100.00
8366;BME280;4220;42.502;24.188;2023-04-25T00:43:27;94499.63;;;11.21;100.00
8366;BME280;4220;42.502;24.188;2023-04-25T00:45:55;94529.13;;;11.07;100.00
8366;BME280;4220;42.502;24.188;2023-04-25T00:48:23;94518.97;;;10.76;100.00
8366;BME280;4220;42.502;24.188;2023-04-25T00:50:52;94480.34;;;10.40;100.00
8366;BME280;4220;42.502;24.188;2023-04-25T00:53:19;94506.06;;;10.40;100.00
8366;BME280;4220;42.502;24.188;2023-04-25T00:55:48;94512.03;;;10.47;100.00
8366;BME280;4220;42.502;24.188;2023-04-25T00:58:16;94517.53;;;10.57;100.00
8366;BME280;4220;42.502;24.188;2023-04-25T01:00:44;94484.72;;;10.46;100.00
8366;BME280;4220;42.502;24.188;2023-04-25T01:03:12;94502.97;;;10.71;100.00
8366;BME280;4220;42.502;24.188;2023-04-25T01:05:40;94488.34;;;10.69;100.00
8366;BME280;4220;42.502;24.188;2023-04-25T01:08:08;94491.34;;;10.89;100.00
8366;BME280;4220;42.502;24.188;2023-04-25T01:10:35;94471.38;;;10.98;100.00
8366;BME280;4220;42.502;24.188;2023-04-25T01:13:04;94459.41;;;11.12;100.00
8366;BME280;4220;42.502;24.188;2023-04-25T01:15:30;94486.03;;;11.34;100.00
8366;BME280;4220;42.502;24.188;2023-04-25T01:17:58;94480.56;;;11.24;100.00
8366;BME280;4220;42.502;24.188;2023-04-25T01:20:26;94471.22;;;11.21;100.00
8366;BME280;4220;42.502;24.188;2023-04-25T01:22:55;94473.34;;;11.36;100.00
8366;BME280;4220;42.502;24.188;2023-04-25T01:25:22;94474.78;;;11.43;100.00
8366;BME280;4220;42.502;24.188;2023-04-25T01:27:50;94471.00;;;11.56;100.00
8366;BME280;4220;42.502;24.188;2023-04-25T01:30:17;94455.72;;;11.63;100.00
8366;BME280;4220;42.502;24.188;2023-04-25T01:32:44;94444.53;;;11.61;100.00
8366;BME280;4220;42.502;24.188;2023-04-25T01:35:11;94453.16;;;11.68;100.00
8366;BME280;4220;42.502;24.188;2023-04-25T01:37:39;94460.78;;;11.64;100.00
8366;BME280;4220;42.502;24.188;2023-04-25T01:40:09;94456.44;;;11.58;100.00
8366;BME280;4220;42.502;24.188;2023-04-25T01:42:39;94453.88;;;11.63;100.00
8366;BME280;4220;42.502;24.188;2023-04-25T01:45:08;94462.38;;;11.65;100.00
8366;BME280;4220;42.502;24.188;2023-04-25T01:47:36;94466.78;;;11.71;100.00
8366;BME280;4220;42.502;24.188;2023-04-25T01:50:03;94467.63;;;11.77;100.00
8366;BME280;4220;42.502;24.188;2023-04-25T01:52:31;94466.34;;;11.79;100.00
8366;BME280;4220;42.502;24.188;2023-04-25T01:54:59;94460.00;;;11.80;100.00
8366;BME280;4220;42.502;24.188;2023-04-25T01:57:29;94462.09;;;11.78;100.00
8366;BME280;4220;42.502;24.188;2023-04-25T01:59:58;94465.97;;;11.71;100.00
8366;BME280;4220;42.502;24.188;2023-04-25T02:02:26;94464.13;;;11.71;100.00
8366;BME280;4220;42.502;24.188;2023-04-25T02:04:52;94456.44;;;11.75;100.00
8366;BME280;4220;42.502;24.188;2023-04-25T02:07:20;94449.84;;;11.77;100.00
8366;BME280;4220;42.502;24.188;2023-04-25T02:09:46;94448.56;;;11.80;100.00
8366;BME280;4220;42.502;24.188;2023-04-25T02:12:13;94434.72;;;11.78;100.00
8366;BME280;4220;42.502;24.188;2023-04-25T02:14:42;94435.19;;;11.75;100.00
8366;BME280;4220;42.502;24.188;2023-04-25T02:17:08;94429.59;;;11.71;100.00
8366;BME280;4220;42.502;24.188;2023-04-25T02:19:35;94432.16;;;11.50;100.00
8366;BME280;4220;42.502;24.188;2023-04-25T02:22:02;94429.56;;;11.38;100.00
8366;BME280;4220;42.502;24.188;2023-04-25T02:24:29;94388.97;;;11.21;100.00
8366;BME280;4220;42.502;24.188;2023-04-25T02:26:57;94426.59;;;11.51;100.00
8366;BME280;4220;42.502;24.188;2023-04-25T02:29:24;94419.75;;;11.55;100.00
8366;BME280;4220;42.502;24.188;2023-04-25T02:31:52;94415.31;;;11.61;100.00
8366;BME280;4220;42.502;24.188;2023-04-25T02:34:19;94411.78;;;11.55;100.00
8366;BME280;4220;42.502;24.188;2023-04-25T02:36:45;94394.59;;;11.41;100.00
8366;BME280;4220;42.502;24.188;2023-04-25T02:39:12;94415.56;;;11.43;100.00
8366;BME280;4220;42.502;24.188;2023-04-25T02:41:39;94417.19;;;11.44;100.00
8366;BME280;4220;42.502;24.188;2023-04-25T02:44:06;94419.28;;;11.42;100.00
8366;BME280;4220;42.502;24.188;2023-04-25T02:46:33;94419.28;;;11.42;100.00
8366;BME280;4220;42.502;24.188;2023-04-25T02:49:01;94420.88;;;11.43;100.00
8366;BME280;4220;42.502;24.188;2023-04-25T02:51:28;94416.38;;;11.43;100.00
8366;BME280;4220;42.502;24.188;2023-04-25T02:53:55;94417.66;;;11.41;100.00
8366;BME280;4220;42.502;24.188;2023-04-25T02:56:22;94416.63;;;11.42;100.00
8366;BME280;4220;42.502;24.188;2023-04-25T02:58:51;94417.19;;;11.44;100.00
8366;BME280;4220;42.502;24.188;2023-04-25T03:01:18;94414.59;;;11.49;100.00
8366;BME280;4220;42.502;24.188;2023-04-25T03:03:45;94419.91;;;11.49;100.00
8366;BME280;4220;42.502;24.188;2023-04-25T03:06:13;94415.91;;;11.46;100.00
8366;BME280;4220;42.502;24.188;2023-04-25T03:08:40;94418.38;;;11.53;100.00
8366;BME280;4220;42.502;24.188;2023-04-25T03:11:08;94424.25;;;11.55;100.00
8366;BME280;4220;42.502;24.188;2023-04-25T03:13:35;94415.78;;;11.58;100.00
8366;BME280;4220;42.502;24.188;2023-04-25T03:16:01;94415.25;;;11.56;100.00
8366;BME280;4220;42.502;24.188;2023-04-25T03:18:28;94412.03;;;11.54;100.00
8366;BME280;4220;42.502;24.188;2023-04-25T03:20:55;94408.75;;;11.47;100.00
8366;BME280;4220;42.502;24.188;2023-04-25T03:23:23;94405.53;;;11.11;100.00
8366;BME280;4220;42.502;24.188;2023-04-25T03:25:51;94411.41;;;11.13;100.00
8366;BME280;4220;42.502;24.188;2023-04-25T03:28:18;94405.75;;;10.93;100.00
8366;BME280;4220;42.502;24.188;2023-04-25T03:30:45;94398.84;;;10.92;100.00
8366;BME280;4220;42.502;24.188;2023-04-25T03:33:12;94403.19;;;10.98;100.00
8366;BME280;4220;42.502;24.188;2023-04-25T03:35:38;94362.63;;;10.53;100.00
8366;BME280;4220;42.502;24.188;2023-04-25T03:38:05;94392.16;;;10.73;100.00
8366;BME280;4220;42.502;24.188;2023-04-25T03:40:33;94407.75;;;10.86;100.00
8366;BME280;4220;42.502;24.188;2023-04-25T03:43:00;94406.78;;;10.76;100.00
8366;BME280;4220;42.502;24.188;2023-04-25T03:45:27;94402.81;;;10.62;100.00
8366;BME280;4220;42.502;24.188;2023-04-25T03:47:54;94395.09;;;10.60;100.00
8366;BME280;4220;42.502;24.188;2023-04-25T03:50:21;94405.53;;;10.50;100.00
8366;BME280;4220;42.502;24.188;2023-04-25T03:52:48;94390.59;;;10.44;100.00
8366;BME280;4220;42.502;24.188;2023-04-25T03:55:15;94392.81;;;10.52;100.00
8366;BME280;4220;42.502;24.188;2023-04-25T03:57:43;94401.78;;;10.63;100.00
8366;BME280;4220;42.502;24.188;2023-04-25T04:00:11;94412.72;;;10.66;100.00
8366;BME280;4220;42.502;24.188;2023-04-25T04:02:38;94408.78;;;10.69;100.00
8366;BME280;4220;42.502;24.188;2023-04-25T04:05:05;94411.38;;;10.80;100.00
8366;BME280;4220;42.502;24.188;2023-04-25T04:07:32;94409.78;;;10.96;100.00
8366;BME280;4220;42.502;24.188;2023-04-25T04:10:05;94413.66;;;11.05;100.00
8366;BME280;4220;42.502;24.188;2023-04-25T04:12:32;94407.06;;;10.91;100.00
8366;BME280;4220;42.502;24.188;2023-04-25T04:15:01;94414.59;;;10.99;100.00
8366;BME280;4220;42.502;24.188;2023-04-25T04:17:29;94411.56;;;10.90;100.00
8366;BME280;4220;42.502;24.188;2023-04-25T04:19:56;94370.78;;;10.80;100.00
8366;BME280;4220;42.502;24.188;2023-04-25T04:22:23;94423.63;;;11.14;100.00
8366;BME280;4220;42.502;24.188;2023-04-25T04:24:50;94422.09;;;11.18;100.00
8366;BME280;4220;42.502;24.188;2023-04-25T04:27:17;94397.97;;;11.03;100.00
8366;BME280;4220;42.502;24.188;2023-04-25T04:29:44;94428.47;;;11.18;100.00
8366;BME280;4220;42.502;24.188;2023-04-25T04:32:14;94424.75;;;11.18;100.00
8366;BME280;4220;42.502;24.188;2023-04-25T04:34:41;94422.81;;;11.31;100.00
8366;BME280;4220;42.502;24.188;2023-04-25T04:37:08;94422.03;;;11.47;100.00
8366;BME280;4220;42.502;24.188;2023-04-25T04:39:35;94423.47;;;11.54;100.00
8366;BME280;4220;42.502;24.188;2023-04-25T04:42:02;94386.53;;;11.36;100.00
8366;BME280;4220;42.502;24.188;2023-04-25T04:44:30;94443.25;;;11.80;100.00
8366;BME280;4220;42.502;24.188;2023-04-25T04:46:59;94446.44;;;11.82;100.00
8366;BME280;4220;42.502;24.188;2023-04-25T04:49:28;94452.44;;;11.89;100.00
8366;BME280;4220;42.502;24.188;2023-04-25T04:51:55;94457.63;;;12.01;100.00
8366;BME280;4220;42.502;24.188;2023-04-25T04:54:22;94457.69;;;12.06;100.00
8366;BME280;4220;42.502;24.188;2023-04-25T04:56:49;94459.13;;;12.13;100.00
8366;BME280;4220;42.502;24.188;2023-04-25T04:59:16;94457.16;;;12.25;100.00
8366;BME280;4220;42.502;24.188;2023-04-25T05:01:43;94454.31;;;12.32;100.00
8366;BME280;4220;42.502;24.188;2023-04-25T05:04:11;94446.88;;;12.34;100.00
8366;BME280;4220;42.502;24.188;2023-04-25T05:06:39;94452.13;;;12.07;100.00
8366;BME280;4220;42.502;24.188;2023-04-25T05:09:06;94442.78;;;12.05;100.00
8366;BME280;4220;42.502;24.188;2023-04-25T05:11:32;94443.47;;;12.17;100.00
8366;BME280;4220;42.502;24.188;2023-04-25T05:13:59;94449.31;;;12.35;100.00
8366;BME280;4220;42.502;24.188;2023-04-25T05:16:26;94451.56;;;12.48;100.00
8366;BME280;4220;42.502;24.188;2023-04-25T05:18:53;94441.06;;;12.59;100.00
8366;BME280;4220;42.502;24.188;2023-04-25T05:21:19;94441.22;;;12.74;100.00
8366;BME280;4220;42.502;24.188;2023-04-25T05:23:48;94439.91;;;12.76;100.00
8366;BME280;4220;42.502;24.188;2023-04-25T05:26:14;94344.94;;;12.23;100.00
8366;BME280;4220;42.502;24.188;2023-04-25T05:28:41;94436.16;;;12.99;100.00
8366;BME280;4220;42.502;24.188;2023-04-25T05:31:09;94433.56;;;13.04;100.00
8366;BME280;4220;42.502;24.188;2023-04-25T05:33:36;94435.31;;;13.20;100.00
8366;BME280;4220;42.502;24.188;2023-04-25T05:36:03;94340.69;;;12.49;100.00
8366;BME280;4220;42.502;24.188;2023-04-25T05:38:30;94437.75;;;13.00;100.00
8366;BME280;4220;42.502;24.188;2023-04-25T05:40:58;94433.00;;;13.02;100.00
8366;BME280;4220;42.502;24.188;2023-04-25T05:43:25;94428.34;;;13.14;100.00
8366;BME280;4220;42.502;24.188;2023-04-25T05:45:52;94436.25;;;13.36;100.00
8366;BME280;4220;42.502;24.188;2023-04-25T05:48:18;94436.41;;;13.56;100.00
8366;BME280;4220;42.502;24.188;2023-04-25T05:50:45;94432.72;;;13.62;100.00
8366;BME280;4220;42.502;24.188;2023-04-25T05:53:12;94442.13;;;13.74;100.00
8366;BME280;4220;42.502;24.188;2023-04-25T05:55:39;94436.09;;;13.89;100.00
8366;BME280;4220;42.502;24.188;2023-04-25T05:58:07;94431.09;;;13.98;100.00
8366;BME280;4220;42.502;24.188;2023-04-25T06:00:34;94434.38;;;14.10;100.00
8366;BME280;4220;42.502;24.188;2023-04-25T06:03:03;94432.28;;;14.22;100.00
8366;BME280;4220;42.502;24.188;2023-04-25T06:05:32;94425.63;;;14.19;100.00
8366;BME280;4220;42.502;24.188;2023-04-25T06:07:59;94428.28;;;14.19;100.00
8366;BME280;4220;42.502;24.188;2023-04-25T06:10:26;94433.97;;;14.33;100.00
8366;BME280;4220;42.502;24.188;2023-04-25T06:12:53;94428.13;;;14.41;100.00
8366;BME280;4220;42.502;24.188;2023-04-25T06:15:21;94430.84;;;14.51;100.00
8366;BME280;4220;42.502;24.188;2023-04-25T06:17:48;94410.56;;;14.50;100.00
8366;BME280;4220;42.502;24.188;2023-04-25T06:20:15;94409.00;;;14.54;100.00
8366;BME280;4220;42.502;24.188;2023-04-25T06:22:41;94425.78;;;14.60;100.00
8366;BME280;4220;42.502;24.188;2023-04-25T06:25:08;94424.41;;;14.42;100.00
8366;BME280;4220;42.502;24.188;2023-04-25T06:27:35;94326.47;;;13.70;100.00
8366;BME280;4220;42.502;24.188;2023-04-25T06:30:02;94407.63;;;13.95;100.00
8366;BME280;4220;42.502;24.188;2023-04-25T06:32:31;94413.69;;;13.85;100.00
8366;BME280;4220;42.502;24.188;2023-04-25T06:34:59;94425.19;;;13.96;100.00
8366;BME280;4220;42.502;24.188;2023-04-25T06:37:26;94427.84;;;13.91;100.00
8366;BME280;4220;42.502;24.188;2023-04-25T06:39:53;94430.06;;;13.62;100.00
8366;BME280;4220;42.502;24.188;2023-04-25T06:42:20;94431.16;;;13.66;100.00
8366;BME280;4220;42.502;24.188;2023-04-25T06:44:47;94433.75;;;13.56;100.00
8366;BME280;4220;42.502;24.188;2023-04-25T06:47:13;94429.16;;;13.51;100.00
8366;BME280;4220;42.502;24.188;2023-04-25T06:49:42;94424.09;;;13.50;100.00
8366;BME280;4220;42.502;24.188;2023-04-25T06:52:08;94422.09;;;13.67;100.00
8366;BME280;4220;42.502;24.188;2023-04-25T06:54:36;94422.41;;;13.70;100.00
8366;BME280;4220;42.502;24.188;2023-04-25T06:57:02;94425.69;;;13.83;100.00
8366;BME280;4220;42.502;24.188;2023-04-25T06:59:29;94422.03;;;13.99;100.00
8366;BME280;4220;42.502;24.188;2023-04-25T07:01:56;94421.31;;;14.13;100.00
8366;BME280;4220;42.502;24.188;2023-04-25T07:04:23;94415.75;;;14.20;100.00
8366;BME280;4220;42.502;24.188;2023-04-25T07:06:51;94420.97;;;14.47;100.00
8366;BME280;4220;42.502;24.188;2023-04-25T07:09:18;94421.78;;;14.47;100.00
8366;BME280;4220;42.502;24.188;2023-04-25T07:11:45;94424.44;;;14.57;100.00
8366;BME280;4220;42.502;24.188;2023-04-25T07:14:12;94420.78;;;14.73;100.00
8366;BME280;4220;42.502;24.188;2023-04-25T07:16:39;94421.34;;;14.85;100.00
8366;BME280;4220;42.502;24.188;2023-04-25T07:19:06;94417.63;;;15.01;100.00
8366;BME280;4220;42.502;24.188;2023-04-25T07:21:33;94418.72;;;15.11;100.00
8366;BME280;4220;42.502;24.188;2023-04-25T07:24:01;94418.16;;;15.14;100.00
8366;BME280;4220;42.502;24.188;2023-04-25T07:26:28;94420.31;;;15.12;100.00
8366;BME280;4220;42.502;24.188;2023-04-25T07:28:54;94437.41;;;15.11;100.00
8366;BME280;4220;42.502;24.188;2023-04-25T07:31:21;94401.34;;;14.93;100.00
8366;BME280;4220;42.502;24.188;2023-04-25T07:33:48;94420.56;;;15.05;100.00
8366;BME280;4220;42.502;24.188;2023-04-25T07:36:15;94430.97;;;14.96;100.00
8366;BME280;4220;42.502;24.188;2023-04-25T07:38:42;94423.78;;;15.02;100.00
8366;BME280;4220;42.502;24.188;2023-04-25T07:41:10;94427.50;;;15.11;100.00
8366;BME280;4220;42.502;24.188;2023-04-25T07:43:37;94424.09;;;15.21;100.00
8366;BME280;4220;42.502;24.188;2023-04-25T07:46:04;94430.75;;;15.28;100.00
8366;BME280;4220;42.502;24.188;2023-04-25T07:48:31;94412.03;;;15.33;100.00
8366;BME280;4220;42.502;24.188;2023-04-25T07:50:58;94423.03;;;15.52;100.00
8366;BME280;4220;42.502;24.188;2023-04-25T07:53:25;94428.91;;;15.59;100.00
8366;BME280;4220;42.502;24.188;2023-04-25T07:55:52;94434.78;;;15.71;100.00
8366;BME280;4220;42.502;24.188;2023-04-25T07:58:20;94438.00;;;15.63;100.00
8366;BME280;4220;42.502;24.188;2023-04-25T08:00:47;94427.81;;;15.75;100.00
8366;BME280;4220;42.502;24.188;2023-04-25T08:03:14;94435.31;;;15.93;100.00
8366;BME280;4220;42.502;24.188;2023-04-25T08:05:41;94427.25;;;16.13;100.00
8366;BME280;4220;42.502;24.188;2023-04-25T08:08:08;94433.31;;;16.39;100.00
8366;BME280;4220;42.502;24.188;2023-04-25T08:10:35;94433.56;;;16.53;100.00
8366;BME280;4220;42.502;24.188;2023-04-25T08:13:01;94439.44;;;16.55;100.00
8366;BME280;4220;42.502;24.188;2023-04-25T08:15:29;94435.88;;;16.74;100.00
8366;BME280;4220;42.502;24.188;2023-04-25T08:17:56;94443.81;;;16.94;100.00
8366;BME280;4220;42.502;24.188;2023-04-25T08:20:23;94439.31;;;16.85;100.00
8366;BME280;4220;42.502;24.188;2023-04-25T08:22:50;94368.22;;;16.49;100.00
8366;BME280;4220;42.502;24.188;2023-04-25T08:25:25;94437.03;;;17.12;100.00
8366;BME280;4220;42.502;24.188;2023-04-25T08:27:52;94443.38;;;17.21;100.00
8366;BME280;4220;42.502;24.188;2023-04-25T08:30:19;94439.53;;;16.93;100.00
8366;BME280;4220;42.502;24.188;2023-04-25T08:32:46;94440.31;;;16.20;100.00
8366;BME280;4220;42.502;24.188;2023-04-25T08:35:13;94439.06;;;15.72;99.69
8366;BME280;4220;42.502;24.188;2023-04-25T08:37:40;94443.34;;;15.58;100.00
8366;BME280;4220;42.502;24.188;2023-04-25T08:40:11;94430.22;;;15.41;100.00
8366;BME280;4220;42.502;24.188;2023-04-25T08:42:41;94441.75;;;15.82;100.00
8366;BME280;4220;42.502;24.188;2023-04-25T08:45:08;94425.94;;;15.86;97.30
8366;BME280;4220;42.502;24.188;2023-04-25T08:47:37;94426.19;;;16.04;97.53
8366;BME280;4220;42.502;24.188;2023-04-25T08:50:05;94434.94;;;16.35;100.00
8366;BME280;4220;42.502;24.188;2023-04-25T08:52:36;94424.47;;;16.44;93.17
8366;BME280;4220;42.502;24.188;2023-04-25T08:55:05;94410.53;;;16.42;93.94
8366;BME280;4220;42.502;24.188;2023-04-25T08:57:34;94429.84;;;16.39;95.66
8366;BME280;4220;42.502;24.188;2023-04-25T09:00:03;94421.09;;;16.08;95.10
8366;BME280;4220;42.502;24.188;2023-04-25T09:02:30;94423.03;;;15.72;95.67
8366;BME280;4220;42.502;24.188;2023-04-25T09:04:58;94415.03;;;15.52;98.64
8366;BME280;4220;42.502;24.188;2023-04-25T09:07:25;94427.88;;;15.60;99.93
8366;BME280;4220;42.502;24.188;2023-04-25T09:09:53;94415.03;;;15.57;98.43
8366;BME280;4220;42.502;24.188;2023-04-25T09:12:21;94424.63;;;15.68;98.16
8366;BME280;4220;42.502;24.188;2023-04-25T09:15:09;94422.47;;;15.85;97.87
8366;BME280;4220;42.502;24.188;2023-04-25T09:17:36;94424.91;;;15.66;96.44
8366;BME280;4220;42.502;24.188;2023-04-25T09:20:07;94412.34;;;15.62;98.27
8366;BME280;4220;42.502;24.188;2023-04-25T09:22:34;94422.47;;;15.75;97.81
8366;BME280;4220;42.502;24.188;2023-04-25T09:25:03;94412.88;;;15.79;94.53
8366;BME280;4220;42.502;24.188;2023-04-25T09:27:32;94420.84;;;15.99;96.44
8366;BME280;4220;42.502;24.188;2023-04-25T09:29:59;94415.75;;;15.98;95.68
8366;BME280;4220;42.502;24.188;2023-04-25T09:32:27;94401.53;;;16.12;97.54
8366;BME280;4220;42.502;24.188;2023-04-25T09:34:55;94416.75;;;16.32;95.10
8366;BME280;4220;42.502;24.188;2023-04-25T09:37:24;94412.69;;;16.45;91.52
8366;BME280;4220;42.502;24.188;2023-04-25T09:39:53;94402.84;;;16.30;89.90
8366;BME280;4220;42.502;24.188;2023-04-25T09:42:22;94396.13;;;16.38;90.71
8366;BME280;4220;42.502;24.188;2023-04-25T09:44:51;94394.22;;;16.53;89.00
8366;BME280;4220;42.502;24.188;2023-04-25T09:47:19;94398.66;;;16.78;85.85
8366;BME280;4220;42.502;24.188;2023-04-25T09:49:48;94396.47;;;16.85;84.96
8366;BME280;4220;42.502;24.188;2023-04-25T09:52:16;94378.94;;;16.49;83.80
8366;BME280;4220;42.502;24.188;2023-04-25T09:54:44;94334.72;;;16.02;84.77
8366;BME280;4220;42.502;24.188;2023-04-25T09:57:13;94389.22;;;16.21;85.89
8366;BME280;4220;42.502;24.188;2023-04-25T09:59:44;94381.19;;;16.26;88.00
8366;BME280;4220;42.502;24.188;2023-04-25T10:02:11;94390.69;;;16.63;86.16
8366;BME280;4220;42.502;24.188;2023-04-25T10:04:39;94383.00;;;17.00;86.03
8366;BME280;4220;42.502;24.188;2023-04-25T10:07:08;94372.28;;;17.34;85.76
8366;BME280;4220;42.502;24.188;2023-04-25T10:09:37;94370.41;;;17.68;81.87
8366;BME280;4220;42.502;24.188;2023-04-25T10:12:05;94376.34;;;17.89;80.91
8366;BME280;4220;42.502;24.188;2023-04-25T10:14:32;94371.75;;;17.66;81.42
8366;BME280;4220;42.502;24.188;2023-04-25T10:17:00;94342.88;;;17.24;85.25
8366;BME280;4220;42.502;24.188;2023-04-25T10:19:28;94384.66;;;16.86;84.94
8366;BME280;4220;42.502;24.188;2023-04-25T10:22:02;94335.50;;;16.08;87.54
8366;BME280;4220;42.502;24.188;2023-04-25T10:24:31;94363.53;;;16.20;88.55
8366;BME280;4220;42.502;24.188;2023-04-25T10:26:59;94349.31;;;16.35;87.25
8366;BME280;4220;42.502;24.188;2023-04-25T10:29:27;94352.34;;;16.72;85.07
8366;BME280;4220;42.502;24.188;2023-04-25T10:31:54;94346.16;;;17.16;85.21
8366;BME280;4220;42.502;24.188;2023-04-25T10:34:25;94345.59;;;17.52;82.95
8366;BME280;4220;42.502;24.188;2023-04-25T10:37:04;94357.84;;;17.63;79.01
8366;BME280;4220;42.502;24.188;2023-04-25T10:39:33;94363.09;;;17.40;79.05
8366;BME280;4220;42.502;24.188;2023-04-25T10:42:02;94341.25;;;17.23;83.57
8366;BME280;4220;42.502;24.188;2023-04-25T10:44:29;94346.41;;;17.19;84.28
8366;BME280;4220;42.502;24.188;2023-04-25T10:46:57;94340.13;;;17.00;84.81
8366;BME280;4220;42.502;24.188;2023-04-25T10:49:29;94329.50;;;16.85;80.79
8366;BME280;4220;42.502;24.188;2023-04-25T10:52:17;94322.75;;;16.92;77.92
8366;BME280;4220;42.502;24.188;2023-04-25T10:54:51;94320.63;;;17.23;78.43
8366;BME280;4220;42.502;24.188;2023-04-25T10:57:26;94310.16;;;17.60;75.06
8366;BME280;4220;42.502;24.188;2023-04-25T10:59:54;94314.16;;;17.87;73.90
8366;BME280;4220;42.502;24.188;2023-04-25T11:02:26;94306.69;;;17.84;72.45
8366;BME280;4220;42.502;24.188;2023-04-25T11:04:53;94311.41;;;18.15;69.23
8366;BME280;4220;42.502;24.188;2023-04-25T11:07:26;94299.53;;;18.21;70.26
8366;BME280;4220;42.502;24.188;2023-04-25T11:09:56;94294.78;;;18.56;71.84
8366;BME280;4220;42.502;24.188;2023-04-25T11:12:24;94301.72;;;18.38;73.22
8366;BME280;4220;42.502;24.188;2023-04-25T11:14:58;94296.88;;;18.40;75.00
8366;BME280;4220;42.502;24.188;2023-04-25T11:17:26;94288.19;;;18.48;75.54
8366;BME280;4220;42.502;24.188;2023-04-25T11:19:54;94298.16;;;18.24;76.67
8366;BME280;4220;42.502;24.188;2023-04-25T11:22:21;94284.25;;;17.98;73.93
8366;BME280;4220;42.502;24.188;2023-04-25T11:24:48;94295.00;;;17.98;74.66
8366;BME280;4220;42.502;24.188;2023-04-25T11:27:17;94304.81;;;18.08;71.17
8366;BME280;4220;42.502;24.188;2023-04-25T11:29:44;94303.09;;;17.93;72.04
8366;BME280;4220;42.502;24.188;2023-04-25T11:32:14;94324.31;;;17.90;75.36
8366;BME280;4220;42.502;24.188;2023-04-25T11:34:44;94315.09;;;17.43;72.79
8366;BME280;4220;42.502;24.188;2023-04-25T11:37:11;94316.56;;;17.31;76.94
8366;BME280;4220;42.502;24.188;2023-04-25T11:39:43;94303.97;;;16.97;76.06
8366;BME280;4220;42.502;24.188;2023-04-25T11:42:11;94316.94;;;16.85;77.52
8366;BME280;4220;42.502;24.188;2023-04-25T11:44:39;94292.06;;;16.80;78.76
8366;BME280;4220;42.502;24.188;2023-04-25T11:47:07;94277.53;;;16.86;79.79
8366;BME280;4220;42.502;24.188;2023-04-25T11:49:33;94296.69;;;17.03;76.61
8366;BME280;4220;42.502;24.188;2023-04-25T11:52:01;94293.66;;;17.43;78.87
8366;BME280;4220;42.502;24.188;2023-04-25T11:54:28;94294.19;;;17.98;77.04
8366;BME280;4220;42.502;24.188;2023-04-25T11:56:55;94275.66;;;18.20;74.20
8366;BME280;4220;42.502;24.188;2023-04-25T11:59:23;94284.16;;;18.27;74.35
8366;BME280;4220;42.502;24.188;2023-04-25T12:01:52;94269.16;;;18.02;74.95
8366;BME280;4220;42.502;24.188;2023-04-25T12:04:21;94263.78;;;17.84;74.30
8366;BME280;4220;42.502;24.188;2023-04-25T12:06:49;94243.22;;;17.74;71.17
8366;BME280;4220;42.502;24.188;2023-04-25T12:09:18;94238.91;;;17.97;69.34
8366;BME280;4220;42.502;24.188;2023-04-25T12:11:48;94258.69;;;18.43;67.12
8366;BME280;4220;42.502;24.188;2023-04-25T12:14:21;94252.84;;;18.78;68.49
8366;BME280;4220;42.502;24.188;2023-04-25T12:16:49;94253.50;;;18.52;69.91
8366;BME280;4220;42.502;24.188;2023-04-25T12:19:19;94269.28;;;18.35;71.79
8366;BME280;4220;42.502;24.188;2023-04-25T12:21:47;94264.16;;;17.96;71.19
8366;BME280;4220;42.502;24.188;2023-04-25T12:24:15;94269.97;;;17.55;72.93
8366;BME280;4220;42.502;24.188;2023-04-25T12:26:50;94286.50;;;17.34;75.20
8366;BME280;4220;42.502;24.188;2023-04-25T12:29:18;94261.94;;;16.93;77.14
8366;BME280;4220;42.502;24.188;2023-04-25T12:31:46;94219.38;;;16.19;81.00
8366;BME280;4220;42.502;24.188;2023-04-25T12:34:13;94267.16;;;16.35;82.30
8366;BME280;4220;42.502;24.188;2023-04-25T12:36:41;94248.84;;;16.58;81.96
8366;BME280;4220;42.502;24.188;2023-04-25T12:39:08;94263.44;;;17.09;80.80
8366;BME280;4220;42.502;24.188;2023-04-25T12:41:35;94274.84;;;16.86;78.50
8366;BME280;4220;42.502;24.188;2023-04-25T12:44:03;94272.34;;;16.66;79.47
8366;BME280;4220;42.502;24.188;2023-04-25T12:46:30;94260.44;;;16.82;80.79
8366;BME280;4220;42.502;24.188;2023-04-25T12:48:57;94255.97;;;17.30;79.09
8366;BME280;4220;42.502;24.188;2023-04-25T12:51:24;94253.22;;;17.40;78.14
8366;BME280;4220;42.502;24.188;2023-04-25T12:53:54;94265.94;;;17.29;77.83
8366;BME280;4220;42.502;24.188;2023-04-25T12:56:21;94268.22;;;17.12;78.53
8366;BME280;4220;42.502;24.188;2023-04-25T12:58:48;94287.13;;;16.92;78.74
8366;BME280;4220;42.502;24.188;2023-04-25T13:01:15;94279.00;;;17.07;79.54
8366;BME280;4220;42.502;24.188;2023-04-25T13:03:41;94280.59;;;17.03;79.85
8366;BME280;4220;42.502;24.188;2023-04-25T13:06:08;94274.56;;;17.21;79.58
8366;BME280;4220;42.502;24.188;2023-04-25T13:08:35;94282.13;;;17.14;78.84